sensor_id;sensor_type;location;lat;lon;timestamp;P1;durP1;ratioP1;P2;durP2;ratioP2
44036;SDS011;62488;-37.670;-63.532;2022-11-20T00:01:07;17.58;;;4.63;;
44036;SDS011;62488;-37.670;-63.532;2022-11-20T00:03:38;32.78;;;6.55;;
44036;SDS011;62488;-37.670;-63.532;2022-11-20T00:06:06;10.45;;;3.03;;
44036;SDS011;62488;-37.670;-63.532;2022-11-20T00:11:15;16.17;;;2.50;;
44036;SDS011;62488;-37.670;-63.532;2022-11-20T00:13:44;4.38;;;1.60;;
44036;SDS011;62488;-37.670;-63.532;2022-11-20T00:16:13;10.65;;;1.80;;
44036;SDS011;62488;-37.670;-63.532;2022-11-20T00:18:42;4.93;;;1.92;;
44036;SDS011;62488;-37.670;-63.532;2022-11-20T00:21:11;10.57;;;2.92;;
44036;SDS011;62488;-37.670;-63.532;2022-11-20T00:23:45;3.17;;;1.17;;
44036;SDS011;62488;-37.670;-63.532;2022-11-20T00:26:13;3.08;;;1.70;;
44036;SDS011;62488;-37.670;-63.532;2022-11-20T00:28:42;11.10;;;2.58;;
44036;SDS011;62488;-37.670;-63.532;2022-11-20T00:31:13;6.15;;;1.50;;
44036;SDS011;62488;-37.670;-63.532;2022-11-20T00:33:41;8.90;;;1.63;;
44036;SDS011;62488;-37.670;-63.532;2022-11-20T00:36:10;13.10;;;3.22;;
44036;SDS011;62488;-37.670;-63.532;2022-11-20T00:38:39;6.60;;;3.28;;
44036;SDS011;62488;-37.670;-63.532;2022-11-20T00:41:07;12.23;;;3.00;;
44036;SDS011;62488;-37.670;-63.532;2022-11-20T00:43:36;8.45;;;3.28;;
44036;SDS011;62488;-37.670;-63.532;2022-11-20T00:46:08;7.05;;;2.83;;
44036;SDS011;62488;-37.670;-63.532;2022-11-20T00:48:38;9.55;;;2.30;;
44036;SDS011;62488;-37.670;-63.532;2022-11-20T00:51:05;9.02;;;2.00;;
44036;SDS011;62488;-37.670;-63.532;2022-11-20T00:53:32;18.05;;;10.38;;
44036;SDS011;62488;-37.670;-63.532;2022-11-20T00:56:00;9.85;;;4.07;;
44036;SDS011;62488;-37.670;-63.532;2022-11-20T00:58:30;11.13;;;4.78;;
44036;SDS011;62488;-37.670;-63.532;2022-11-20T01:01:12;5.97;;;2.22;;
44036;SDS011;62488;-37.670;-63.532;2022-11-20T01:03:45;10.05;;;2.20;;
44036;SDS011;62488;-37.670;-63.532;2022-11-20T01:06:16;23.52;;;3.80;;
44036;SDS011;62488;-37.670;-63.532;2022-11-20T01:08:48;30.13;;;15.43;;
44036;SDS011;62488;-37.670;-63.532;2022-11-20T01:11:17;35.43;;;20.20;;
44036;SDS011;62488;-37.670;-63.532;2022-11-20T01:13:50;22.95;;;14.18;;
44036;SDS011;62488;-37.670;-63.532;2022-11-20T01:18:51;21.35;;;9.27;;
44036;SDS011;62488;-37.670;-63.532;2022-11-20T01:21:20;28.27;;;18.35;;
44036;SDS011;62488;-37.670;-63.532;2022-11-20T01:23:49;52.53;;;33.63;;
44036;SDS011;62488;-37.670;-63.532;2022-11-20T01:26:21;32.53;;;24.33;;
44036;SDS011;62488;-37.670;-63.532;2022-11-20T01:28:51;22.35;;;7.85;;
44036;SDS011;62488;-37.670;-63.532;2022-11-20T01:33:54;13.68;;;2.90;;
44036;SDS011;62488;-37.670;-63.532;2022-11-20T01:36:23;10.23;;;2.90;;
44036;SDS011;62488;-37.670;-63.532;2022-11-20T01:38:53;13.25;;;2.90;;
44036;SDS011;62488;-37.670;-63.532;2022-11-20T01:41:21;10.82;;;2.72;;
44036;SDS011;62488;-37.670;-63.532;2022-11-20T01:44:09;16.80;;;3.70;;
44036;SDS011;62488;-37.670;-63.532;2022-11-20T01:47:02;25.45;;;3.50;;
44036;SDS011;62488;-37.670;-63.532;2022-11-20T01:52:07;6.32;;;2.08;;
44036;SDS011;62488;-37.670;-63.532;2022-11-20T01:54:56;10.60;;;2.55;;
44036;SDS011;62488;-37.670;-63.532;2022-11-20T01:57:29;10.18;;;1.70;;
44036;SDS011;62488;-37.670;-63.532;2022-11-20T02:00:08;8.38;;;2.45;;
44036;SDS011;62488;-37.670;-63.532;2022-11-20T02:02:37;15.95;;;2.53;;
44036;SDS011;62488;-37.670;-63.532;2022-11-20T02:05:22;12.98;;;2.92;;
44036;SDS011;62488;-37.670;-63.532;2022-11-20T02:07:57;15.07;;;3.38;;
44036;SDS011;62488;-37.670;-63.532;2022-11-20T02:10:25;9.63;;;2.92;;
44036;SDS011;62488;-37.670;-63.532;2022-11-20T02:12:53;17.92;;;3.78;;
44036;SDS011;62488;-37.670;-63.532;2022-11-20T02:15:38;12.05;;;3.00;;
44036;SDS011;62488;-37.670;-63.532;2022-11-20T02:18:06;10.65;;;3.33;;
44036;SDS011;62488;-37.670;-63.532;2022-11-20T02:20:35;13.10;;;2.72;;
44036;SDS011;62488;-37.670;-63.532;2022-11-20T02:23:03;12.52;;;2.78;;
44036;SDS011;62488;-37.670;-63.532;2022-11-20T02:25:38;11.95;;;3.70;;
44036;SDS011;62488;-37.670;-63.532;2022-11-20T02:28:07;13.98;;;4.82;;
44036;SDS011;62488;-37.670;-63.532;2022-11-20T02:30:34;18.08;;;4.65;;
44036;SDS011;62488;-37.670;-63.532;2022-11-20T02:33:01;25.67;;;5.03;;
44036;SDS011;62488;-37.670;-63.532;2022-11-20T02:37:56;10.18;;;3.92;;
44036;SDS011;62488;-37.670;-63.532;2022-11-20T02:40:25;12.57;;;5.18;;
44036;SDS011;62488;-37.670;-63.532;2022-11-20T02:42:52;14.80;;;4.85;;
44036;SDS011;62488;-37.670;-63.532;2022-11-20T02:45:20;14.75;;;3.58;;
44036;SDS011;62488;-37.670;-63.532;2022-11-20T02:47:51;14.75;;;4.68;;
44036;SDS011;62488;-37.670;-63.532;2022-11-20T02:50:18;12.65;;;4.72;;
44036;SDS011;62488;-37.670;-63.532;2022-11-20T02:52:46;14.88;;;5.85;;
44036;SDS011;62488;-37.670;-63.532;2022-11-20T02:55:13;27.13;;;7.15;;
44036;SDS011;62488;-37.670;-63.532;2022-11-20T02:57:40;15.77;;;5.22;;
44036;SDS011;62488;-37.670;-63.532;2022-11-20T03:00:07;11.48;;;3.78;;
44036;SDS011;62488;-37.670;-63.532;2022-11-20T03:02:35;11.93;;;3.30;;
44036;SDS011;62488;-37.670;-63.532;2022-11-20T03:05:02;7.22;;;2.35;;
44036;SDS011;62488;-37.670;-63.532;2022-11-20T03:07:29;5.78;;;2.33;;
44036;SDS011;62488;-37.670;-63.532;2022-11-20T03:09:56;4.80;;;1.58;;
44036;SDS011;62488;-37.670;-63.532;2022-11-20T03:12:23;3.00;;;1.48;;
44036;SDS011;62488;-37.670;-63.532;2022-11-20T03:14:50;2.33;;;1.10;;
44036;SDS011;62488;-37.670;-63.532;2022-11-20T03:17:17;2.33;;;1.30;;
44036;SDS011;62488;-37.670;-63.532;2022-11-20T03:19:44;2.67;;;1.45;;
44036;SDS011;62488;-37.670;-63.532;2022-11-20T03:22:11;4.40;;;1.50;;
44036;SDS011;62488;-37.670;-63.532;2022-11-20T03:24:38;4.18;;;1.60;;
44036;SDS011;62488;-37.670;-63.532;2022-11-20T03:27:05;5.20;;;1.38;;
44036;SDS011;62488;-37.670;-63.532;2022-11-20T03:29:32;11.27;;;1.83;;
44036;SDS011;62488;-37.670;-63.532;2022-11-20T03:32:00;7.22;;;1.92;;
44036;SDS011;62488;-37.670;-63.532;2022-11-20T03:34:27;7.68;;;2.17;;
44036;SDS011;62488;-37.670;-63.532;2022-11-20T03:36:54;3.92;;;2.60;;
44036;SDS011;62488;-37.670;-63.532;2022-11-20T03:39:21;7.55;;;3.10;;
44036;SDS011;62488;-37.670;-63.532;2022-11-20T03:41:48;6.18;;;2.08;;
44036;SDS011;62488;-37.670;-63.532;2022-11-20T03:44:15;5.60;;;2.17;;
44036;SDS011;62488;-37.670;-63.532;2022-11-20T03:46:42;8.00;;;2.70;;
44036;SDS011;62488;-37.670;-63.532;2022-11-20T03:49:09;4.38;;;2.78;;
44036;SDS011;62488;-37.670;-63.532;2022-11-20T03:51:36;4.90;;;2.75;;
44036;SDS011;62488;-37.670;-63.532;2022-11-20T03:54:08;7.22;;;2.85;;
44036;SDS011;62488;-37.670;-63.532;2022-11-20T03:56:36;8.70;;;3.58;;
44036;SDS011;62488;-37.670;-63.532;2022-11-20T03:59:04;7.78;;;2.60;;
44036;SDS011;62488;-37.670;-63.532;2022-11-20T04:01:33;8.20;;;3.13;;
44036;SDS011;62488;-37.670;-63.532;2022-11-20T04:04:02;8.10;;;3.30;;
44036;SDS011;62488;-37.670;-63.532;2022-11-20T04:06:33;20.48;;;3.55;;
44036;SDS011;62488;-37.670;-63.532;2022-11-20T04:09:02;8.38;;;2.70;;
44036;SDS011;62488;-37.670;-63.532;2022-11-20T04:11:30;13.38;;;4.30;;
44036;SDS011;62488;-37.670;-63.532;2022-11-20T04:16:31;12.70;;;4.97;;
44036;SDS011;62488;-37.670;-63.532;2022-11-20T04:19:00;6.15;;;3.65;;
44036;SDS011;62488;-37.670;-63.532;2022-11-20T04:21:29;7.60;;;3.30;;
44036;SDS011;62488;-37.670;-63.532;2022-11-20T04:23:56;7.50;;;2.85;;
44036;SDS011;62488;-37.670;-63.532;2022-11-20T04:26:25;11.02;;;3.30;;
44036;SDS011;62488;-37.670;-63.532;2022-11-20T04:28:53;8.77;;;2.40;;
44036;SDS011;62488;-37.670;-63.532;2022-11-20T04:31:21;4.38;;;2.65;;
44036;SDS011;62488;-37.670;-63.532;2022-11-20T04:33:50;5.20;;;2.88;;
44036;SDS011;62488;-37.670;-63.532;2022-11-20T04:36:21;5.90;;;2.45;;
44036;SDS011;62488;-37.670;-63.532;2022-11-20T04:38:50;6.28;;;2.80;;
44036;SDS011;62488;-37.670;-63.532;2022-11-20T04:41:19;4.43;;;2.20;;
44036;SDS011;62488;-37.670;-63.532;2022-11-20T04:43:51;10.77;;;3.23;;
44036;SDS011;62488;-37.670;-63.532;2022-11-20T04:46:25;4.50;;;2.67;;
44036;SDS011;62488;-37.670;-63.532;2022-11-20T04:48:53;8.40;;;2.92;;
44036;SDS011;62488;-37.670;-63.532;2022-11-20T04:51:20;4.72;;;2.22;;
44036;SDS011;62488;-37.670;-63.532;2022-11-20T04:53:47;5.25;;;2.10;;
44036;SDS011;62488;-37.670;-63.532;2022-11-20T04:56:14;6.25;;;2.15;;
44036;SDS011;62488;-37.670;-63.532;2022-11-20T04:58:41;6.65;;;2.47;;
44036;SDS011;62488;-37.670;-63.532;2022-11-20T05:01:17;5.38;;;2.40;;
44036;SDS011;62488;-37.670;-63.532;2022-11-20T05:03:46;8.15;;;3.22;;
44036;SDS011;62488;-37.670;-63.532;2022-11-20T05:06:14;7.70;;;2.10;;
44036;SDS011;62488;-37.670;-63.532;2022-11-20T05:08:45;4.15;;;2.70;;
44036;SDS011;62488;-37.670;-63.532;2022-11-20T05:11:14;4.80;;;2.20;;
44036;SDS011;62488;-37.670;-63.532;2022-11-20T05:13:45;5.68;;;2.53;;
44036;SDS011;62488;-37.670;-63.532;2022-11-20T05:16:15;5.35;;;2.63;;
44036;SDS011;62488;-37.670;-63.532;2022-11-20T05:18:47;4.95;;;2.10;;
44036;SDS011;62488;-37.670;-63.532;2022-11-20T05:21:16;3.53;;;1.90;;
44036;SDS011;62488;-37.670;-63.532;2022-11-20T05:23:44;4.25;;;2.15;;
44036;SDS011;62488;-37.670;-63.532;2022-11-20T05:26:12;4.38;;;2.22;;
44036;SDS011;62488;-37.670;-63.532;2022-11-20T05:28:44;5.25;;;1.90;;
44036;SDS011;62488;-37.670;-63.532;2022-11-20T05:31:13;1.52;;;1.40;;
44036;SDS011;62488;-37.670;-63.532;2022-11-20T05:33:43;2.35;;;1.40;;
44036;SDS011;62488;-37.670;-63.532;2022-11-20T05:36:11;2.28;;;1.52;;
44036;SDS011;62488;-37.670;-63.532;2022-11-20T05:38:40;3.43;;;1.30;;
44036;SDS011;62488;-37.670;-63.532;2022-11-20T05:41:08;4.43;;;1.80;;
44036;SDS011;62488;-37.670;-63.532;2022-11-20T05:43:40;2.38;;;1.42;;
44036;SDS011;62488;-37.670;-63.532;2022-11-20T05:46:09;3.33;;;1.98;;
44036;SDS011;62488;-37.670;-63.532;2022-11-20T05:48:38;5.65;;;1.40;;
44036;SDS011;62488;-37.670;-63.532;2022-11-20T05:51:07;3.28;;;1.58;;
44036;SDS011;62488;-37.670;-63.532;2022-11-20T05:53:36;4.13;;;1.10;;
44036;SDS011;62488;-37.670;-63.532;2022-11-20T05:56:04;3.60;;;1.63;;
44036;SDS011;62488;-37.670;-63.532;2022-11-20T05:58:43;3.90;;;1.50;;
44036;SDS011;62488;-37.670;-63.532;2022-11-20T06:01:20;3.22;;;1.40;;
44036;SDS011;62488;-37.670;-63.532;2022-11-20T06:03:49;2.40;;;1.30;;
44036;SDS011;62488;-37.670;-63.532;2022-11-20T06:06:18;2.53;;;1.33;;
44036;SDS011;62488;-37.670;-63.532;2022-11-20T06:08:45;3.45;;;1.80;;
44036;SDS011;62488;-37.670;-63.532;2022-11-20T06:11:13;4.70;;;1.55;;
44036;SDS011;62488;-37.670;-63.532;2022-11-20T06:13:41;1.67;;;1.08;;
44036;SDS011;62488;-37.670;-63.532;2022-11-20T06:16:09;3.88;;;1.55;;
44036;SDS011;62488;-37.670;-63.532;2022-11-20T06:18:37;5.20;;;1.65;;
44036;SDS011;62488;-37.670;-63.532;2022-11-20T06:23:33;2.92;;;1.30;;
44036;SDS011;62488;-37.670;-63.532;2022-11-20T06:26:07;2.95;;;1.90;;
44036;SDS011;62488;-37.670;-63.532;2022-11-20T06:28:36;1.55;;;1.00;;
44036;SDS011;62488;-37.670;-63.532;2022-11-20T06:31:04;1.30;;;1.00;;
44036;SDS011;62488;-37.670;-63.532;2022-11-20T06:33:32;2.15;;;1.52;;
44036;SDS011;62488;-37.670;-63.532;2022-11-20T06:35:59;2.28;;;1.00;;
44036;SDS011;62488;-37.670;-63.532;2022-11-20T06:38:27;2.72;;;1.58;;
44036;SDS011;62488;-37.670;-63.532;2022-11-20T06:40:54;2.38;;;1.20;;
44036;SDS011;62488;-37.670;-63.532;2022-11-20T06:43:22;2.78;;;1.73;;
44036;SDS011;62488;-37.670;-63.532;2022-11-20T06:45:53;1.17;;;1.08;;
44036;SDS011;62488;-37.670;-63.532;2022-11-20T06:48:21;3.80;;;1.75;;
44036;SDS011;62488;-37.670;-63.532;2022-11-20T06:50:49;2.45;;;1.20;;
44036;SDS011;62488;-37.670;-63.532;2022-11-20T06:53:16;1.40;;;1.30;;
44036;SDS011;62488;-37.670;-63.532;2022-11-20T06:55:46;3.45;;;2.08;;
44036;SDS011;62488;-37.670;-63.532;2022-11-20T06:58:14;3.22;;;1.70;;
44036;SDS011;62488;-37.670;-63.532;2022-11-20T07:00:41;3.20;;;1.73;;
44036;SDS011;62488;-37.670;-63.532;2022-11-20T07:03:09;3.05;;;1.77;;
44036;SDS011;62488;-37.670;-63.532;2022-11-20T07:05:37;2.30;;;2.10;;
44036;SDS011;62488;-37.670;-63.532;2022-11-20T07:08:05;7.35;;;2.08;;
44036;SDS011;62488;-37.670;-63.532;2022-11-20T07:10:32;3.63;;;2.00;;
44036;SDS011;62488;-37.670;-63.532;2022-11-20T07:13:00;11.13;;;2.45;;
44036;SDS011;62488;-37.670;-63.532;2022-11-20T07:15:26;2.95;;;2.13;;
44036;SDS011;62488;-37.670;-63.532;2022-11-20T07:17:53;3.67;;;1.65;;
44036;SDS011;62488;-37.670;-63.532;2022-11-20T07:20:20;3.72;;;1.90;;
44036;SDS011;62488;-37.670;-63.532;2022-11-20T07:22:52;4.63;;;2.00;;
44036;SDS011;62488;-37.670;-63.532;2022-11-20T07:25:21;11.13;;;2.40;;
44036;SDS011;62488;-37.670;-63.532;2022-11-20T07:27:49;4.72;;;2.15;;
44036;SDS011;62488;-37.670;-63.532;2022-11-20T07:30:17;3.17;;;1.92;;
44036;SDS011;62488;-37.670;-63.532;2022-11-20T07:32:47;2.28;;;2.08;;
44036;SDS011;62488;-37.670;-63.532;2022-11-20T07:35:18;4.22;;;2.50;;
44036;SDS011;62488;-37.670;-63.532;2022-11-20T07:37:45;6.00;;;2.58;;
44036;SDS011;62488;-37.670;-63.532;2022-11-20T07:40:13;6.15;;;2.28;;
44036;SDS011;62488;-37.670;-63.532;2022-11-20T07:42:58;5.00;;;2.50;;
44036;SDS011;62488;-37.670;-63.532;2022-11-20T07:45:25;6.70;;;2.20;;
44036;SDS011;62488;-37.670;-63.532;2022-11-20T07:47:52;6.03;;;2.40;;
44036;SDS011;62488;-37.670;-63.532;2022-11-20T07:50:19;4.55;;;2.95;;
44036;SDS011;62488;-37.670;-63.532;2022-11-20T07:52:46;10.98;;;2.85;;
44036;SDS011;62488;-37.670;-63.532;2022-11-20T07:55:14;7.53;;;2.80;;
44036;SDS011;62488;-37.670;-63.532;2022-11-20T07:57:41;11.35;;;2.78;;
44036;SDS011;62488;-37.670;-63.532;2022-11-20T08:00:09;6.10;;;2.25;;
44036;SDS011;62488;-37.670;-63.532;2022-11-20T08:02:37;5.13;;;2.38;;
44036;SDS011;62488;-37.670;-63.532;2022-11-20T08:05:08;6.15;;;2.20;;
44036;SDS011;62488;-37.670;-63.532;2022-11-20T08:07:39;2.95;;;2.20;;
44036;SDS011;62488;-37.670;-63.532;2022-11-20T08:10:08;4.93;;;2.28;;
44036;SDS011;62488;-37.670;-63.532;2022-11-20T08:12:43;4.45;;;2.13;;
44036;SDS011;62488;-37.670;-63.532;2022-11-20T08:15:29;6.05;;;2.50;;
44036;SDS011;62488;-37.670;-63.532;2022-11-20T08:18:00;4.32;;;2.10;;
44036;SDS011;62488;-37.670;-63.532;2022-11-20T08:20:30;6.25;;;2.60;;
44036;SDS011;62488;-37.670;-63.532;2022-11-20T08:22:59;4.32;;;2.00;;
44036;SDS011;62488;-37.670;-63.532;2022-11-20T08:25:31;6.88;;;2.90;;
44036;SDS011;62488;-37.670;-63.532;2022-11-20T08:27:59;8.48;;;2.38;;
44036;SDS011;62488;-37.670;-63.532;2022-11-20T08:30:28;8.27;;;2.33;;
44036;SDS011;62488;-37.670;-63.532;2022-11-20T08:32:59;2.75;;;2.42;;
44036;SDS011;62488;-37.670;-63.532;2022-11-20T08:35:37;4.30;;;2.30;;
44036;SDS011;62488;-37.670;-63.532;2022-11-20T08:38:06;3.17;;;2.00;;
44036;SDS011;62488;-37.670;-63.532;2022-11-20T08:40:34;4.32;;;2.00;;
44036;SDS011;62488;-37.670;-63.532;2022-11-20T08:43:01;2.65;;;2.10;;
44036;SDS011;62488;-37.670;-63.532;2022-11-20T08:45:28;6.32;;;3.28;;
44036;SDS011;62488;-37.670;-63.532;2022-11-20T08:47:59;5.35;;;3.33;;
44036;SDS011;62488;-37.670;-63.532;2022-11-20T08:50:26;5.80;;;3.60;;
44036;SDS011;62488;-37.670;-63.532;2022-11-20T08:53:01;10.82;;;5.00;;
44036;SDS011;62488;-37.670;-63.532;2022-11-20T08:55:31;8.07;;;3.53;;
44036;SDS011;62488;-37.670;-63.532;2022-11-20T08:58:03;6.78;;;4.20;;
44036;SDS011;62488;-37.670;-63.532;2022-11-20T09:00:31;7.57;;;4.25;;
44036;SDS011;62488;-37.670;-63.532;2022-11-20T09:02:59;9.60;;;5.15;;
44036;SDS011;62488;-37.670;-63.532;2022-11-20T09:05:26;8.38;;;5.80;;
44036;SDS011;62488;-37.670;-63.532;2022-11-20T09:07:57;13.95;;;5.88;;
44036;SDS011;62488;-37.670;-63.532;2022-11-20T09:10:25;10.80;;;5.70;;
44036;SDS011;62488;-37.670;-63.532;2022-11-20T09:12:52;10.45;;;6.43;;
44036;SDS011;62488;-37.670;-63.532;2022-11-20T09:15:23;14.13;;;7.43;;
44036;SDS011;62488;-37.670;-63.532;2022-11-20T09:17:54;17.83;;;9.00;;
44036;SDS011;62488;-37.670;-63.532;2022-11-20T09:20:26;22.73;;;9.88;;
44036;SDS011;62488;-37.670;-63.532;2022-11-20T09:22:57;16.92;;;9.50;;
44036;SDS011;62488;-37.670;-63.532;2022-11-20T09:25:24;19.13;;;9.77;;
44036;SDS011;62488;-37.670;-63.532;2022-11-20T09:27:57;19.52;;;10.27;;
44036;SDS011;62488;-37.670;-63.532;2022-11-20T09:30:25;19.25;;;9.98;;
44036;SDS011;62488;-37.670;-63.532;2022-11-20T09:32:53;20.85;;;10.38;;
44036;SDS011;62488;-37.670;-63.532;2022-11-20T09:35:20;12.60;;;8.02;;
44036;SDS011;62488;-37.670;-63.532;2022-11-20T09:37:47;16.48;;;8.80;;
44036;SDS011;62488;-37.670;-63.532;2022-11-20T09:40:19;14.52;;;5.47;;
44036;SDS011;62488;-37.670;-63.532;2022-11-20T09:45:56;13.13;;;5.07;;
44036;SDS011;62488;-37.670;-63.532;2022-11-20T09:56:27;21.75;;;5.15;;
44036;SDS011;62488;-37.670;-63.532;2022-11-20T09:58:57;14.50;;;4.55;;
44036;SDS011;62488;-37.670;-63.532;2022-11-20T10:01:31;12.35;;;4.32;;
44036;SDS011;62488;-37.670;-63.532;2022-11-20T10:09:37;16.90;;;5.45;;
44036;SDS011;62488;-37.670;-63.532;2022-11-20T10:12:12;16.50;;;4.82;;
44036;SDS011;62488;-37.670;-63.532;2022-11-20T10:29:20;18.23;;;4.20;;
44036;SDS011;62488;-37.670;-63.532;2022-11-20T10:31:57;15.38;;;4.75;;
44036;SDS011;62488;-37.670;-63.532;2022-11-20T10:37:18;21.60;;;5.18;;
44036;SDS011;62488;-37.670;-63.532;2022-11-20T10:39:51;14.70;;;4.82;;
44036;SDS011;62488;-37.670;-63.532;2022-11-20T10:48:48;16.50;;;4.82;;
44036;SDS011;62488;-37.670;-63.532;2022-11-20T10:51:33;16.13;;;4.63;;
44036;SDS011;62488;-37.670;-63.532;2022-11-20T11:00:09;16.38;;;5.05;;
44036;SDS011;62488;-37.670;-63.532;2022-11-20T11:02:49;10.65;;;2.88;;
44036;SDS011;62488;-37.670;-63.532;2022-11-20T11:07:57;21.08;;;3.67;;
44036;SDS011;62488;-37.670;-63.532;2022-11-20T11:10:32;24.77;;;3.65;;
44036;SDS011;62488;-37.670;-63.532;2022-11-20T11:13:27;11.75;;;2.70;;
44036;SDS011;62488;-37.670;-63.532;2022-11-20T11:15:56;10.60;;;2.92;;
44036;SDS011;62488;-37.670;-63.532;2022-11-20T11:18:25;12.77;;;3.13;;
44036;SDS011;62488;-37.670;-63.532;2022-11-20T11:20:55;9.35;;;2.78;;
44036;SDS011;62488;-37.670;-63.532;2022-11-20T11:23:31;9.43;;;3.15;;
44036;SDS011;62488;-37.670;-63.532;2022-11-20T11:26:18;9.68;;;3.70;;
44036;SDS011;62488;-37.670;-63.532;2022-11-20T11:28:53;9.75;;;3.38;;
44036;SDS011;62488;-37.670;-63.532;2022-11-20T11:31:22;12.82;;;3.13;;
44036;SDS011;62488;-37.670;-63.532;2022-11-20T11:33:51;12.68;;;2.90;;
44036;SDS011;62488;-37.670;-63.532;2022-11-20T11:36:20;7.35;;;2.65;;
44036;SDS011;62488;-37.670;-63.532;2022-11-20T11:38:52;12.18;;;2.25;;
44036;SDS011;62488;-37.670;-63.532;2022-11-20T11:41:20;10.50;;;2.85;;
44036;SDS011;62488;-37.670;-63.532;2022-11-20T11:44:36;18.67;;;2.53;;
44036;SDS011;62488;-37.670;-63.532;2022-11-20T11:47:04;6.55;;;1.98;;
44036;SDS011;62488;-37.670;-63.532;2022-11-20T11:49:37;7.65;;;2.15;;
44036;SDS011;62488;-37.670;-63.532;2022-11-20T11:54:46;7.30;;;2.15;;
44036;SDS011;62488;-37.670;-63.532;2022-11-20T12:00:02;11.57;;;2.50;;
44036;SDS011;62488;-37.670;-63.532;2022-11-20T12:16:13;5.65;;;1.80;;
44036;SDS011;62488;-37.670;-63.532;2022-11-20T12:18:43;8.85;;;1.90;;
44036;SDS011;62488;-37.670;-63.532;2022-11-20T12:41:27;7.22;;;1.65;;
44036;SDS011;62488;-37.670;-63.532;2022-11-20T12:50:19;3.67;;;2.22;;
44036;SDS011;62488;-37.670;-63.532;2022-11-20T12:53:10;5.25;;;1.40;;
44036;SDS011;62488;-37.670;-63.532;2022-11-20T12:58:43;11.20;;;1.52;;
44036;SDS011;62488;-37.670;-63.532;2022-11-20T13:01:32;4.22;;;1.10;;
44036;SDS011;62488;-37.670;-63.532;2022-11-20T13:04:39;3.38;;;1.15;;
44036;SDS011;62488;-37.670;-63.532;2022-11-20T13:07:33;3.90;;;1.40;;
44036;SDS011;62488;-37.670;-63.532;2022-11-20T13:10:02;3.63;;;1.45;;
44036;SDS011;62488;-37.670;-63.532;2022-11-20T13:17:46;10.38;;;1.60;;
44036;SDS011;62488;-37.670;-63.532;2022-11-20T13:20:24;6.72;;;1.40;;
44036;SDS011;62488;-37.670;-63.532;2022-11-20T13:22:53;8.07;;;1.30;;
44036;SDS011;62488;-37.670;-63.532;2022-11-20T13:25:26;20.73;;;1.67;;
44036;SDS011;62488;-37.670;-63.532;2022-11-20T13:27:53;5.32;;;1.50;;
44036;SDS011;62488;-37.670;-63.532;2022-11-20T13:30:23;7.38;;;1.35;;
44036;SDS011;62488;-37.670;-63.532;2022-11-20T13:35:35;10.70;;;1.52;;
44036;SDS011;62488;-37.670;-63.532;2022-11-20T13:38:05;11.27;;;1.88;;
44036;SDS011;62488;-37.670;-63.532;2022-11-20T13:40:37;2.92;;;1.33;;
44036;SDS011;62488;-37.670;-63.532;2022-11-20T13:43:22;3.05;;;1.00;;
44036;SDS011;62488;-37.670;-63.532;2022-11-20T13:45:59;3.50;;;1.00;;
44036;SDS011;62488;-37.670;-63.532;2022-11-20T13:48:41;9.70;;;1.40;;
44036;SDS011;62488;-37.670;-63.532;2022-11-20T13:51:28;5.47;;;1.30;;
44036;SDS011;62488;-37.670;-63.532;2022-11-20T13:54:22;8.52;;;1.13;;
44036;SDS011;62488;-37.670;-63.532;2022-11-20T13:57:10;3.15;;;1.20;;
44036;SDS011;62488;-37.670;-63.532;2022-11-20T14:00:15;5.40;;;1.17;;
44036;SDS011;62488;-37.670;-63.532;2022-11-20T14:02:47;8.95;;;1.20;;
44036;SDS011;62488;-37.670;-63.532;2022-11-20T14:05:27;7.43;;;1.08;;
44036;SDS011;62488;-37.670;-63.532;2022-11-20T14:07:57;14.77;;;1.05;;
44036;SDS011;62488;-37.670;-63.532;2022-11-20T14:10:25;7.97;;;1.23;;
44036;SDS011;62488;-37.670;-63.532;2022-11-20T14:12:54;4.35;;;1.15;;
44036;SDS011;62488;-37.670;-63.532;2022-11-20T14:15:31;2.50;;;1.08;;
44036;SDS011;62488;-37.670;-63.532;2022-11-20T14:18:10;8.02;;;1.60;;
44036;SDS011;62488;-37.670;-63.532;2022-11-20T14:20:39;6.68;;;1.10;;
44036;SDS011;62488;-37.670;-63.532;2022-11-20T14:23:07;6.97;;;1.45;;
44036;SDS011;62488;-37.670;-63.532;2022-11-20T14:25:36;16.80;;;1.63;;
44036;SDS011;62488;-37.670;-63.532;2022-11-20T14:28:10;6.68;;;1.40;;
44036;SDS011;62488;-37.670;-63.532;2022-11-20T14:30:46;9.57;;;1.65;;
44036;SDS011;62488;-37.670;-63.532;2022-11-20T14:33:15;15.55;;;2.25;;
44036;SDS011;62488;-37.670;-63.532;2022-11-20T14:35:47;13.10;;;3.13;;
44036;SDS011;62488;-37.670;-63.532;2022-11-20T14:38:17;8.63;;;2.17;;
44036;SDS011;62488;-37.670;-63.532;2022-11-20T14:40:47;8.45;;;1.20;;
44036;SDS011;62488;-37.670;-63.532;2022-11-20T14:45:55;2.95;;;1.35;;
44036;SDS011;62488;-37.670;-63.532;2022-11-20T14:51:04;7.47;;;2.00;;
44036;SDS011;62488;-37.670;-63.532;2022-11-20T14:53:31;3.72;;;1.08;;
44036;SDS011;62488;-37.670;-63.532;2022-11-20T14:55:59;6.88;;;1.52;;
44036;SDS011;62488;-37.670;-63.532;2022-11-20T14:58:28;3.38;;;1.40;;
44036;SDS011;62488;-37.670;-63.532;2022-11-20T15:01:01;5.25;;;1.52;;
44036;SDS011;62488;-37.670;-63.532;2022-11-20T15:03:31;7.25;;;1.30;;
44036;SDS011;62488;-37.670;-63.532;2022-11-20T15:05:59;4.90;;;1.35;;
44036;SDS011;62488;-37.670;-63.532;2022-11-20T15:08:27;7.93;;;1.35;;
44036;SDS011;62488;-37.670;-63.532;2022-11-20T15:10:54;4.25;;;1.48;;
44036;SDS011;62488;-37.670;-63.532;2022-11-20T15:13:32;6.28;;;1.58;;
44036;SDS011;62488;-37.670;-63.532;2022-11-20T15:16:04;4.63;;;1.67;;
44036;SDS011;62488;-37.670;-63.532;2022-11-20T15:18:53;6.30;;;1.52;;
44036;SDS011;62488;-37.670;-63.532;2022-11-20T15:21:21;5.38;;;1.23;;
44036;SDS011;62488;-37.670;-63.532;2022-11-20T15:23:48;4.38;;;1.30;;
44036;SDS011;62488;-37.670;-63.532;2022-11-20T15:26:24;7.20;;;1.55;;
44036;SDS011;62488;-37.670;-63.532;2022-11-20T15:28:53;6.63;;;1.10;;
44036;SDS011;62488;-37.670;-63.532;2022-11-20T15:31:21;3.50;;;1.10;;
44036;SDS011;62488;-37.670;-63.532;2022-11-20T15:33:49;6.68;;;1.33;;
44036;SDS011;62488;-37.670;-63.532;2022-11-20T15:36:16;14.80;;;1.80;;
44036;SDS011;62488;-37.670;-63.532;2022-11-20T15:38:43;3.45;;;1.52;;
44036;SDS011;62488;-37.670;-63.532;2022-11-20T15:41:10;6.03;;;1.60;;
44036;SDS011;62488;-37.670;-63.532;2022-11-20T15:43:41;5.07;;;1.27;;
44036;SDS011;62488;-37.670;-63.532;2022-11-20T15:46:13;5.63;;;1.52;;
44036;SDS011;62488;-37.670;-63.532;2022-11-20T15:48:44;5.53;;;1.30;;
44036;SDS011;62488;-37.670;-63.532;2022-11-20T15:51:31;7.25;;;1.33;;
44036;SDS011;62488;-37.670;-63.532;2022-11-20T15:54:14;3.88;;;1.58;;
44036;SDS011;62488;-37.670;-63.532;2022-11-20T15:56:46;5.88;;;1.40;;
44036;SDS011;62488;-37.670;-63.532;2022-11-20T15:59:14;9.15;;;1.63;;
44036;SDS011;62488;-37.670;-63.532;2022-11-20T16:01:41;7.70;;;1.30;;
44036;SDS011;62488;-37.670;-63.532;2022-11-20T16:04:12;10.95;;;2.40;;
44036;SDS011;62488;-37.670;-63.532;2022-11-20T16:06:42;3.85;;;1.40;;
44036;SDS011;62488;-37.670;-63.532;2022-11-20T16:09:09;5.50;;;1.52;;
44036;SDS011;62488;-37.670;-63.532;2022-11-20T16:11:36;10.48;;;1.60;;
44036;SDS011;62488;-37.670;-63.532;2022-11-20T16:14:03;4.70;;;1.25;;
44036;SDS011;62488;-37.670;-63.532;2022-11-20T16:16:49;4.40;;;1.52;;
44036;SDS011;62488;-37.670;-63.532;2022-11-20T16:19:16;5.30;;;1.63;;
44036;SDS011;62488;-37.670;-63.532;2022-11-20T16:21:44;10.23;;;1.42;;
44036;SDS011;62488;-37.670;-63.532;2022-11-20T16:24:13;5.32;;;1.23;;
44036;SDS011;62488;-37.670;-63.532;2022-11-20T16:26:41;11.15;;;1.67;;
44036;SDS011;62488;-37.670;-63.532;2022-11-20T16:29:08;7.07;;;1.92;;
44036;SDS011;62488;-37.670;-63.532;2022-11-20T16:31:36;7.55;;;1.48;;
44036;SDS011;62488;-37.670;-63.532;2022-11-20T16:34:04;3.72;;;1.48;;